createdAt,value
2022-07-28T00:00:04.748Z,1.00
2022-07-28T00:02:35.165Z,0.82
2022-07-28T00:05:01.916Z,1.10
2022-07-28T00:07:28.591Z,1.10
2022-07-28T00:10:00.122Z,0.90
2022-07-28T00:12:27.539Z,1.15
2022-07-28T00:14:54.287Z,1.20
2022-07-28T00:17:21.027Z,1.00
2022-07-28T00:19:47.727Z,1.05
2022-07-28T00:22:14.472Z,1.10
2022-07-28T00:24:41.294Z,1.00
2022-07-28T00:27:08.256Z,1.00
2022-07-28T00:29:42.527Z,1.00
2022-07-28T00:32:17.441Z,1.02
2022-07-28T00:34:45.147Z,1.00
2022-07-28T00:37:13.343Z,1.05
2022-07-28T00:39:41.890Z,0.90
2022-07-28T00:42:09.174Z,0.90
2022-07-28T00:44:36.166Z,1.45
2022-07-28T00:47:03.068Z,1.33
2022-07-28T00:49:29.936Z,1.27
2022-07-28T00:51:57.475Z,1.35
2022-07-28T00:54:24.142Z,1.30
2022-07-28T00:56:50.931Z,1.00
2022-07-28T00:59:17.838Z,1.17
2022-07-28T01:01:44.677Z,1.23
2022-07-28T01:04:11.762Z,1.00
2022-07-28T01:06:41.519Z,1.27
2022-07-28T01:09:29.833Z,1.23
2022-07-28T01:12:12.236Z,1.20
2022-07-28T01:14:38.849Z,1.10
2022-07-28T01:17:21.033Z,1.17
2022-07-28T01:20:06.097Z,0.90
2022-07-28T01:22:39.285Z,1.10
2022-07-28T01:25:23.703Z,1.40
2022-07-28T01:27:57.699Z,1.00
2022-07-28T01:30:33.446Z,1.00
2022-07-28T01:33:04.398Z,1.45
2022-07-28T01:35:33.844Z,0.98
2022-07-28T01:38:03.715Z,1.23
2022-07-28T01:40:33.525Z,1.10
2022-07-28T01:43:03.239Z,1.10
2022-07-28T01:45:30.763Z,1.35
2022-07-28T01:48:00.553Z,1.10
2022-07-28T01:50:27.798Z,1.27
2022-07-28T01:52:55.784Z,1.00
2022-07-28T01:55:23.993Z,1.10
2022-07-28T01:57:53.756Z,0.98
2022-07-28T02:00:20.594Z,1.05
2022-07-28T02:02:49.497Z,0.77
2022-07-28T02:05:19.290Z,2.20
2022-07-28T02:07:49.757Z,0.95
2022-07-28T02:10:17.545Z,0.95
2022-07-28T02:12:45.270Z,1.05
2022-07-28T02:15:13.876Z,1.00
2022-07-28T02:17:44.013Z,1.10
2022-07-28T02:20:13.350Z,1.10
2022-07-28T02:22:41.037Z,1.13
2022-07-28T02:25:08.167Z,1.00
2022-07-28T02:27:47.481Z,1.17
2022-07-28T02:30:37.835Z,1.15
2022-07-28T02:33:59.846Z,1.00
2022-07-28T02:36:12.301Z,1.00
2022-07-28T02:38:45.673Z,1.23
2022-07-28T02:41:27.634Z,0.95
2022-07-28T02:44:01.267Z,1.58
2022-07-28T02:46:32.713Z,1.05
2022-07-28T02:49:03.578Z,0.95
2022-07-28T02:51:30.785Z,0.85
2022-07-28T02:53:57.952Z,1.02
2022-07-28T02:56:25.586Z,1.17
2022-07-28T02:58:53.011Z,1.02
2022-07-28T03:01:20.788Z,1.33
2022-07-28T03:03:48.899Z,1.02
2022-07-28T03:06:17.099Z,1.45
2022-07-28T03:08:44.302Z,1.10
2022-07-28T03:11:12.906Z,1.35
2022-07-28T03:13:40.111Z,1.08
2022-07-28T03:16:07.383Z,1.00
2022-07-28T03:18:34.066Z,1.20
2022-07-28T03:21:00.824Z,0.82
2022-07-28T03:23:32.787Z,1.27
2022-07-28T03:26:02.920Z,0.98
2022-07-28T03:28:30.198Z,1.13
2022-07-28T03:31:07.819Z,0.88
2022-07-28T03:33:34.570Z,1.20
2022-07-28T03:36:04.556Z,1.27
2022-07-28T03:38:39.353Z,1.27
2022-07-28T03:41:08.543Z,1.15
2022-07-28T03:43:35.523Z,1.15
2022-07-28T03:46:02.449Z,1.10
2022-07-28T03:48:30.245Z,1.08
2022-07-28T03:50:57.650Z,1.02
2022-07-28T03:53:28.591Z,1.10
2022-07-28T03:55:55.951Z,1.33
2022-07-28T03:58:28.645Z,1.35
2022-07-28T04:00:55.808Z,1.30
2022-07-28T04:03:43.312Z,1.40
2022-07-28T04:06:09.390Z,1.33
2022-07-28T04:08:36.086Z,1.38
2022-07-28T04:11:02.901Z,1.20
2022-07-28T04:13:31.961Z,1.27
2022-07-28T04:15:59.613Z,1.50
2022-07-28T04:18:26.286Z,1.20
2022-07-28T04:20:52.975Z,1.35
2022-07-28T04:23:20.901Z,1.27
2022-07-28T04:25:48.035Z,1.33
2022-07-28T04:28:15.742Z,1.17
2022-07-28T04:30:43.891Z,1.52
2022-07-28T04:33:11.225Z,1.08
2022-07-28T04:35:38.012Z,1.45
2022-07-28T04:38:04.726Z,1.30
2022-07-28T04:40:31.497Z,1.33
2022-07-28T04:42:58.169Z,1.08
2022-07-28T04:45:25.041Z,1.42
2022-07-28T04:47:51.945Z,1.17
2022-07-28T04:50:21.270Z,1.30
2022-07-28T04:52:49.773Z,1.48
2022-07-28T04:55:17.871Z,1.13
2022-07-28T04:57:44.719Z,1.20
2022-07-28T05:00:13.794Z,1.40
2022-07-28T05:02:44.891Z,1.52
2022-07-28T05:05:12.261Z,1.38
2022-07-28T05:07:39.467Z,1.63
2022-07-28T05:10:09.959Z,1.60
2022-07-28T05:12:36.781Z,1.73
2022-07-28T05:15:06.204Z,1.42
2022-07-28T05:17:32.888Z,1.30
2022-07-28T05:19:59.549Z,1.48
2022-07-28T05:22:26.722Z,1.50
2022-07-28T05:24:53.418Z,1.20
2022-07-28T05:27:20.123Z,1.50
2022-07-28T05:29:48.084Z,1.30
2022-07-28T05:32:17.037Z,1.70
2022-07-28T05:34:45.499Z,1.40
2022-07-28T05:37:12.390Z,1.88
2022-07-28T05:39:39.190Z,1.60
2022-07-28T05:42:06.155Z,1.50
2022-07-28T05:44:37.989Z,1.48
2022-07-28T05:47:06.021Z,2.10
2022-07-28T05:49:33.022Z,1.50
2022-07-28T05:51:59.827Z,1.70
2022-07-28T05:54:26.584Z,1.90
2022-07-28T05:56:53.297Z,1.40
2022-07-28T05:59:19.997Z,1.50
2022-07-28T06:01:46.764Z,1.75
2022-07-28T06:04:29.697Z,1.50
2022-07-28T06:06:56.622Z,1.90
2022-07-28T06:09:23.335Z,1.77
2022-07-28T06:11:50.797Z,1.70
2022-07-28T06:14:18.708Z,1.80
2022-07-28T06:16:50.768Z,1.90
2022-07-28T06:19:18.254Z,2.25
2022-07-28T06:21:45.162Z,1.90
2022-07-28T06:24:12.224Z,1.70
2022-07-28T06:26:44.250Z,1.60
2022-07-28T06:29:11.735Z,2.10
2022-07-28T06:31:38.954Z,1.98
2022-07-28T06:34:06.196Z,2.08
2022-07-28T06:36:32.978Z,1.98
2022-07-28T06:38:59.786Z,2.28
2022-07-28T06:41:26.529Z,2.55
2022-07-28T06:43:53.276Z,2.72
2022-07-28T06:46:20.209Z,2.70
2022-07-28T06:48:47.116Z,2.90
2022-07-28T06:51:18.862Z,2.80
2022-07-28T06:53:48.104Z,2.75
2022-07-28T06:56:15.710Z,2.50
2022-07-28T06:58:43.975Z,2.90
2022-07-28T07:01:14.919Z,3.65
2022-07-28T07:03:42.380Z,3.40
2022-07-28T07:06:10.864Z,3.17
2022-07-28T07:08:38.009Z,3.25
2022-07-28T07:11:04.714Z,3.45
2022-07-28T07:13:32.200Z,2.83
2022-07-28T07:15:58.969Z,3.10
2022-07-28T07:18:26.236Z,2.70
2022-07-28T07:20:54.523Z,3.15
2022-07-28T07:23:21.431Z,3.25
2022-07-28T07:25:48.619Z,3.50
2022-07-28T07:28:15.387Z,3.75
2022-07-28T07:30:43.443Z,3.05
2022-07-28T07:33:10.571Z,3.35
2022-07-28T07:35:37.990Z,3.13
2022-07-28T07:38:04.949Z,3.45
2022-07-28T07:40:32.261Z,3.30
2022-07-28T07:42:59.142Z,2.95
2022-07-28T07:45:29.441Z,3.72
2022-07-28T07:47:56.157Z,2.35
2022-07-28T07:50:23.023Z,2.60
2022-07-28T07:52:49.964Z,2.60
2022-07-28T07:55:17.630Z,2.78
2022-07-28T07:57:45.027Z,3.13
2022-07-28T08:00:28.314Z,2.63
2022-07-28T08:02:57.366Z,2.83
2022-07-28T08:05:34.811Z,4.97
2022-07-28T08:08:04.740Z,3.42
2022-07-28T08:10:31.486Z,3.10
2022-07-28T08:12:58.291Z,2.78
2022-07-28T08:15:24.999Z,2.80
2022-07-28T08:17:51.683Z,3.25
2022-07-28T08:20:18.604Z,3.22
2022-07-28T08:22:53.246Z,3.22
2022-07-28T08:25:20.696Z,2.70
2022-07-28T08:27:48.067Z,3.50
2022-07-28T08:30:21.180Z,3.45
2022-07-28T08:32:57.010Z,3.30
2022-07-28T08:35:34.712Z,3.63
2022-07-28T08:38:04.360Z,3.28
2022-07-28T08:40:34.394Z,3.25
2022-07-28T08:43:36.436Z,3.35
2022-07-28T08:46:06.320Z,3.35
2022-07-28T08:48:35.458Z,3.20
2022-07-28T08:51:07.762Z,3.22
2022-07-28T08:53:36.481Z,3.22
2022-07-28T08:56:08.094Z,3.60
2022-07-28T08:58:37.795Z,3.47
2022-07-28T09:01:08.413Z,2.92
2022-07-28T09:03:36.591Z,3.25
2022-07-28T09:06:03.609Z,2.90
2022-07-28T09:08:30.420Z,3.40
2022-07-28T09:10:57.208Z,3.80
2022-07-28T09:13:23.982Z,3.22
2022-07-28T09:15:50.772Z,3.28
2022-07-28T09:18:18.215Z,2.88
2022-07-28T09:20:45.497Z,2.70
2022-07-28T09:23:41.879Z,3.38
2022-07-28T09:26:11.025Z,3.00
2022-07-28T09:28:52.401Z,3.63
2022-07-28T09:31:20.695Z,2.55
2022-07-28T09:34:02.111Z,2.90
2022-07-28T09:36:30.417Z,3.28
2022-07-28T09:38:57.635Z,3.20
2022-07-28T09:41:24.672Z,3.00
2022-07-28T09:43:55.207Z,3.08
2022-07-28T09:46:24.530Z,3.30
2022-07-28T09:49:01.189Z,3.33
2022-07-28T09:51:31.578Z,3.58
2022-07-28T09:54:11.682Z,3.60
2022-07-28T09:56:41.029Z,3.47
2022-07-28T09:59:08.623Z,3.30
2022-07-28T10:01:51.526Z,3.58
2022-07-28T10:04:32.243Z,4.13
2022-07-28T10:07:07.564Z,4.00
2022-07-28T10:09:34.461Z,3.85
2022-07-28T10:12:37.775Z,3.25
2022-07-28T10:15:35.104Z,3.08
2022-07-28T10:18:02.446Z,3.10
2022-07-28T10:20:29.649Z,4.07
2022-07-28T10:23:04.353Z,3.10
2022-07-28T10:25:33.227Z,3.42
2022-07-28T10:28:02.083Z,3.35
2022-07-28T10:30:31.741Z,3.03
2022-07-28T10:32:59.940Z,3.40
2022-07-28T10:35:27.431Z,3.35
2022-07-28T10:38:03.732Z,2.63
2022-07-28T10:40:34.161Z,3.10
2022-07-28T10:43:01.119Z,3.05
2022-07-28T10:45:47.901Z,3.45
2022-07-28T10:48:15.438Z,3.08
2022-07-28T10:50:42.525Z,3.20
2022-07-28T10:53:12.033Z,3.33
2022-07-28T10:55:50.307Z,3.20
2022-07-28T10:58:25.213Z,2.92
2022-07-28T11:00:57.145Z,3.25
2022-07-28T11:03:44.081Z,3.17
2022-07-28T11:06:31.866Z,2.85
2022-07-28T11:09:20.054Z,3.00
2022-07-28T11:11:52.517Z,3.20
2022-07-28T11:14:22.918Z,3.45
2022-07-28T11:17:12.048Z,2.67
2022-07-28T11:20:16.751Z,3.10
2022-07-28T11:22:33.471Z,2.33
2022-07-28T11:25:20.979Z,2.97
2022-07-28T11:27:51.291Z,2.90
2022-07-28T11:30:35.660Z,2.80
2022-07-28T11:33:07.051Z,3.20
2022-07-28T11:35:54.263Z,2.97
2022-07-28T11:38:21.455Z,2.60
2022-07-28T11:40:53.282Z,2.70
2022-07-28T11:43:36.630Z,3.28
2022-07-28T11:46:24.677Z,3.42
2022-07-28T11:49:17.027Z,2.88
2022-07-28T11:52:19.536Z,3.15
2022-07-28T11:54:53.723Z,3.00
2022-07-28T11:57:44.899Z,2.60
2022-07-28T12:00:25.204Z,3.25
2022-07-28T12:03:09.920Z,3.70
2022-07-28T12:08:14.979Z,3.25
2022-07-28T12:10:55.810Z,3.45
2022-07-28T12:13:41.198Z,2.67
2022-07-28T12:16:07.920Z,3.00
2022-07-28T12:18:34.927Z,2.63
2022-07-28T12:21:05.189Z,2.60
2022-07-28T12:23:46.023Z,2.83
2022-07-28T12:26:31.359Z,2.80
2022-07-28T12:29:00.257Z,2.40
2022-07-28T12:31:33.427Z,2.90
2022-07-28T12:34:09.603Z,2.78
2022-07-28T12:36:37.922Z,2.50
2022-07-28T12:39:10.860Z,2.67
2022-07-28T12:41:39.635Z,2.63
2022-07-28T12:44:06.753Z,2.42
2022-07-28T12:46:33.562Z,2.80
2022-07-28T12:49:01.687Z,2.60
2022-07-28T12:51:40.281Z,2.72
2022-07-28T12:54:11.317Z,2.45
2022-07-28T12:56:55.586Z,2.15
2022-07-28T12:59:22.435Z,2.13
2022-07-28T13:01:51.432Z,2.55
2022-07-28T13:04:47.575Z,2.00
2022-07-28T13:07:20.273Z,2.00
2022-07-28T13:10:00.055Z,2.50
2022-07-28T13:12:28.148Z,2.85
2022-07-28T13:14:57.786Z,2.95
2022-07-28T13:17:33.097Z,2.70
2022-07-28T13:20:05.367Z,2.33
2022-07-28T13:22:35.335Z,2.50
2022-07-28T13:25:02.507Z,2.72
2022-07-28T13:27:29.241Z,2.55
2022-07-28T13:29:55.980Z,3.05
2022-07-28T13:32:22.846Z,2.38
2022-07-28T13:34:49.905Z,2.28
2022-07-28T13:37:16.791Z,2.80
2022-07-28T13:39:43.827Z,2.13
2022-07-28T13:42:10.736Z,2.53
2022-07-28T13:44:40.079Z,2.67
2022-07-28T13:47:06.898Z,2.38
2022-07-28T13:49:34.562Z,2.28
2022-07-28T13:52:02.220Z,2.72
2022-07-28T13:54:28.986Z,2.65
2022-07-28T13:56:55.710Z,2.42
2022-07-28T13:59:23.959Z,2.55
2022-07-28T14:01:55.247Z,2.55
2022-07-28T14:04:22.204Z,2.55
2022-07-28T14:06:49.621Z,2.40
2022-07-28T14:09:18.375Z,2.50
2022-07-28T14:11:50.056Z,2.80
2022-07-28T14:14:25.157Z,2.30
2022-07-28T14:16:54.246Z,2.47
2022-07-28T14:19:37.858Z,2.42
2022-07-28T14:22:12.748Z,2.47
2022-07-28T14:24:39.878Z,2.40
2022-07-28T14:27:06.605Z,2.30
2022-07-28T14:29:33.273Z,2.75
2022-07-28T14:32:00.051Z,2.90
2022-07-28T14:34:26.810Z,3.05
2022-07-28T14:36:53.470Z,2.90
2022-07-28T14:39:20.198Z,2.70
2022-07-28T14:41:46.885Z,2.50
2022-07-28T14:44:24.327Z,2.38
2022-07-28T14:46:51.533Z,2.33
2022-07-28T14:49:18.844Z,2.30
2022-07-28T14:51:45.885Z,2.03
2022-07-28T14:54:13.026Z,2.30
2022-07-28T14:56:40.011Z,2.25
2022-07-28T14:59:06.721Z,2.35
2022-07-28T15:01:36.106Z,2.47
2022-07-28T15:04:03.584Z,2.30
2022-07-28T15:06:30.391Z,2.60
2022-07-28T15:08:58.298Z,2.60
2022-07-28T15:11:25.583Z,2.75
2022-07-28T15:13:52.379Z,2.30
2022-07-28T15:16:19.147Z,2.40
2022-07-28T15:18:45.873Z,1.92
2022-07-28T15:21:16.439Z,2.40
2022-07-28T15:23:43.764Z,2.20
2022-07-28T15:26:10.762Z,2.20
2022-07-28T15:28:37.632Z,2.17
2022-07-28T15:31:06.707Z,2.30
2022-07-28T15:33:39.881Z,2.20
2022-07-28T15:36:15.519Z,1.98
2022-07-28T15:38:47.095Z,2.58
2022-07-28T15:41:15.144Z,2.30
2022-07-28T15:43:42.235Z,2.40
2022-07-28T15:46:11.729Z,2.53
2022-07-28T15:48:40.643Z,2.33
2022-07-28T15:51:07.875Z,2.50
2022-07-28T15:53:35.456Z,2.10
2022-07-28T15:56:03.997Z,2.65
2022-07-28T15:58:30.966Z,2.17
2022-07-28T16:01:01.035Z,1.98
2022-07-28T16:03:29.872Z,2.17
2022-07-28T16:05:57.001Z,2.20
2022-07-28T16:08:24.216Z,2.17
2022-07-28T16:10:53.118Z,1.80
2022-07-28T16:13:36.245Z,2.45
2022-07-28T16:16:10.509Z,2.13
2022-07-28T16:18:40.093Z,2.38
2022-07-28T16:21:08.549Z,2.25
2022-07-28T16:23:35.634Z,2.10
2022-07-28T16:26:03.625Z,2.47
2022-07-28T16:28:30.373Z,2.47
2022-07-28T16:30:57.315Z,2.22
2022-07-28T16:33:24.029Z,2.10
2022-07-28T16:35:50.740Z,2.47
2022-07-28T16:38:19.155Z,2.10
2022-07-28T16:40:46.124Z,2.35
2022-07-28T16:43:12.819Z,2.10
2022-07-28T16:45:40.917Z,2.10
2022-07-28T16:48:07.655Z,2.45
2022-07-28T16:50:35.043Z,2.33
2022-07-28T16:53:04.904Z,2.30
2022-07-28T16:55:31.786Z,2.30
2022-07-28T16:57:58.535Z,2.47
2022-07-28T17:00:26.848Z,2.40
2022-07-28T17:02:53.639Z,2.20
2022-07-28T17:05:20.636Z,2.90
2022-07-28T17:07:47.576Z,2.30
2022-07-28T17:10:15.575Z,2.03
2022-07-28T17:12:50.296Z,2.17
2022-07-28T17:15:22.496Z,2.13
2022-07-28T17:17:50.943Z,2.00
2022-07-28T17:20:19.141Z,2.13
2022-07-28T17:22:45.856Z,2.20
2022-07-28T17:25:43.673Z,2.10
2022-07-28T17:28:00.170Z,2.20
2022-07-28T17:30:29.950Z,2.30
2022-07-28T17:32:58.841Z,2.40
2022-07-28T17:35:31.424Z,2.05
2022-07-28T17:38:01.459Z,2.00
2022-07-28T17:40:28.301Z,2.00
2022-07-28T17:42:54.977Z,2.38
2022-07-28T17:45:21.780Z,2.40
2022-07-28T17:47:48.530Z,2.10
2022-07-28T17:50:15.760Z,2.30
2022-07-28T17:52:43.322Z,1.90
2022-07-28T17:55:29.598Z,2.28
2022-07-28T17:58:20.033Z,2.45
2022-07-28T18:00:54.222Z,2.47
2022-07-28T18:03:22.708Z,2.10
2022-07-28T18:05:49.699Z,2.20
2022-07-28T18:08:17.283Z,2.20
2022-07-28T18:10:53.833Z,1.92
2022-07-28T18:13:22.034Z,2.10
2022-07-28T18:15:49.613Z,1.92
2022-07-28T18:18:16.441Z,2.30
2022-07-28T18:20:43.435Z,2.13
2022-07-28T18:23:11.143Z,2.05
2022-07-28T18:25:42.208Z,1.90
2022-07-28T18:28:11.807Z,2.00
2022-07-28T18:30:39.609Z,2.13
2022-07-28T18:33:06.469Z,2.20
2022-07-28T18:35:33.498Z,2.10
2022-07-28T18:38:00.434Z,2.30
2022-07-28T18:40:28.848Z,1.95
2022-07-28T18:42:56.103Z,2.00
2022-07-28T18:45:27.051Z,2.22
2022-07-28T18:47:58.477Z,1.83
2022-07-28T18:50:31.293Z,1.95
2022-07-28T18:52:58.905Z,1.85
2022-07-28T18:55:26.066Z,1.98
2022-07-28T18:57:52.888Z,2.20
2022-07-28T19:00:19.965Z,2.20
2022-07-28T19:02:46.711Z,1.90
2022-07-28T19:05:13.694Z,2.05
2022-07-28T19:07:40.395Z,2.00
2022-07-28T19:10:07.734Z,2.22
2022-07-28T19:12:34.575Z,2.25
2022-07-28T19:15:01.871Z,1.80
2022-07-28T19:17:29.116Z,2.00
2022-07-28T19:19:56.351Z,2.10
2022-07-28T19:22:24.436Z,2.00
2022-07-28T19:24:52.452Z,2.00
2022-07-28T19:27:24.168Z,1.85
2022-07-28T19:29:50.963Z,2.10
2022-07-28T19:32:18.737Z,2.08
2022-07-28T19:34:47.090Z,2.38
2022-07-28T19:37:16.762Z,2.00
2022-07-28T19:39:45.944Z,2.13
2022-07-28T19:42:12.962Z,2.00
2022-07-28T19:44:41.120Z,2.15
2022-07-28T19:47:08.711Z,2.20
2022-07-28T19:49:35.621Z,2.10
2022-07-28T19:52:02.787Z,2.13
2022-07-28T19:54:29.493Z,2.20
2022-07-28T19:56:56.456Z,2.35
2022-07-28T19:59:23.262Z,2.50
2022-07-28T20:01:51.301Z,2.35
2022-07-28T20:04:19.207Z,2.00
2022-07-28T20:06:50.872Z,2.40
2022-07-28T20:09:21.926Z,2.20
2022-07-28T20:11:49.626Z,2.47
2022-07-28T20:14:17.884Z,2.17
2022-07-28T20:16:44.976Z,2.20
2022-07-28T20:19:13.998Z,2.30
2022-07-28T20:21:40.749Z,1.85
2022-07-28T20:24:08.656Z,2.63
2022-07-28T20:26:35.374Z,3.50
2022-07-28T20:29:02.178Z,2.92
2022-07-28T20:31:29.846Z,3.13
2022-07-28T20:33:57.010Z,3.08
2022-07-28T20:36:29.139Z,3.00
2022-07-28T20:38:57.161Z,3.08
2022-07-28T20:41:23.831Z,3.10
2022-07-28T20:44:11.319Z,3.17
2022-07-28T20:46:37.213Z,3.33
2022-07-28T20:49:03.957Z,2.97
2022-07-28T20:51:30.688Z,3.10
2022-07-28T20:53:57.368Z,2.95
2022-07-28T20:56:24.032Z,3.42
2022-07-28T20:58:50.714Z,2.92
2022-07-28T21:01:17.544Z,3.33
2022-07-28T21:03:48.228Z,2.80
2022-07-28T21:06:15.075Z,3.65
2022-07-28T21:08:41.769Z,3.25
2022-07-28T21:11:08.629Z,3.00
2022-07-28T21:13:35.310Z,3.47
2022-07-28T21:16:02.040Z,3.15
2022-07-28T21:18:28.736Z,3.08
2022-07-28T21:20:55.412Z,2.90
2022-07-28T21:23:22.081Z,3.35
2022-07-28T21:25:50.958Z,3.22
2022-07-28T21:28:36.193Z,3.40
2022-07-28T21:31:02.964Z,3.30
2022-07-28T21:33:29.788Z,3.13
2022-07-28T21:35:56.532Z,3.58
2022-07-28T21:38:23.281Z,3.45
2022-07-28T21:40:50.260Z,3.10
2022-07-28T21:43:17.010Z,2.80
2022-07-28T21:45:45.645Z,3.20
2022-07-28T21:48:12.643Z,3.00
2022-07-28T21:50:39.362Z,3.13
2022-07-28T21:53:06.145Z,3.67
2022-07-28T21:55:33.129Z,3.10
2022-07-28T21:57:59.804Z,2.85
2022-07-28T22:00:26.593Z,2.80
2022-07-28T22:02:53.483Z,3.40
2022-07-28T22:05:20.465Z,2.88
2022-07-28T22:07:48.955Z,2.90
2022-07-28T22:10:15.715Z,3.03
2022-07-28T22:12:42.410Z,3.00
2022-07-28T22:15:09.487Z,2.85
2022-07-28T22:17:36.276Z,3.28
2022-07-28T22:20:04.614Z,2.90
2022-07-28T22:22:31.351Z,2.83
2022-07-28T22:24:58.111Z,2.90
2022-07-28T22:27:24.886Z,3.22
2022-07-28T22:29:52.449Z,3.00
2022-07-28T22:32:28.686Z,2.83
2022-07-28T22:34:59.460Z,3.10
2022-07-28T22:37:26.172Z,3.00
2022-07-28T22:39:52.917Z,2.83
2022-07-28T22:42:19.614Z,3.38
2022-07-28T22:44:46.332Z,3.50
2022-07-28T22:47:13.128Z,3.08
2022-07-28T22:49:39.822Z,3.10
2022-07-28T22:52:06.517Z,3.30
2022-07-28T22:54:37.166Z,3.20
2022-07-28T22:57:03.846Z,3.08
2022-07-28T22:59:31.237Z,3.47
2022-07-28T23:02:03.826Z,3.40
2022-07-28T23:04:30.712Z,3.10
2022-07-28T23:06:57.680Z,3.17
2022-07-28T23:09:24.355Z,3.35
2022-07-28T23:11:51.028Z,3.13
2022-07-28T23:14:22.760Z,3.53
2022-07-28T23:16:49.483Z,3.30
2022-07-28T23:19:16.579Z,3.60
2022-07-28T23:21:43.267Z,3.38
2022-07-28T23:24:09.983Z,3.00
2022-07-28T23:26:36.823Z,2.97
2022-07-28T23:29:03.821Z,3.28
2022-07-28T23:31:30.722Z,2.88
2022-07-28T23:33:57.803Z,2.88
2022-07-28T23:36:26.751Z,2.95
2022-07-28T23:38:58.575Z,3.20
2022-07-28T23:41:25.878Z,2.67
2022-07-28T23:43:52.719Z,3.03
2022-07-28T23:46:19.464Z,3.40
2022-07-28T23:48:46.304Z,3.33
2022-07-28T23:51:14.103Z,2.90
2022-07-28T23:53:44.217Z,3.38
2022-07-28T23:56:10.909Z,2.95
2022-07-28T23:58:37.660Z,3.15
